Lynn Lake, Manitoba

1:46 PM CST on February 01, 2015 (GMT -0600)
Lynn Lake | Change Station
CLOSE
Current Station
Airport
Location: Lynn Lake,
Elevation: 1171 ft
Nearby Weather Stations
Active Advisory: Special Weather Statement

Elev 1171 ft 56.86 °N, 101.08 °W | Updated 46 minutes ago

Scattered Clouds
Scattered Clouds
-9 °F
Feels Like -28 °F
N
10
Wind Variable Wind from WSW

Today is forecast to be nearly the same temperature as yesterday.

Today
High -- | Low -- °F
--% Chance of Precip.
Yesterday
High -- | Low -- °F
Precip. -- in
8:43 AM 5:13 PM
Waxing Gibbous, 96% visible
Pressure 30.29 in
Visibility 9.0 miles
Clouds Few 9000 ft
Scattered Clouds 16000 ft
Windchill -28 °F
Dew Point -18 °F
Humidity 65%
Rainfall 0.00 in
Snow Depth Not available.
UV 1 out of 12
Pollen Not available.
Air Quality Not available.
Flu Activity Not available.
METAR CYYL 011900Z AUTO 24009KT 9SM FEW090 SCT160 M23/M28 A3013 RMK SLP256

More Conditions Fewer Conditions

Pressure 30.29 in
Visibility 9.0 miles
Clouds Few 9000 ft
Scattered Clouds 16000 ft
Windchill -28 °F
Dew Point -18 °F
Humidity 65%
Rainfall 0.00 in
Snow Depth Not available.
UV 1 out of 12
Pollen Not available.
Air Quality Not available.
Flu Activity Not available.
METAR CYYL 011900Z AUTO 24009KT 9SM FEW090 SCT160 M23/M28 A3013 RMK SLP256

More Conditions Fewer Conditions

10-Day Weather Forecast

Almanac

Astronomy

Feb. 01, 2015 Rise Set
Actual Time
Civil Twilight
Nautical Twilight
Astronomical Twilight
Moon
Length of Visible Light
Length of Day
Tomorrow will be .
, % of the Moon is Illuminated

Today's Extremes

Country Highs Country Lows

Community

WunderPhotos

Upload Photos

1,792,471 photos uploaded!

WunderBlogs® & News

Nearby

Air Quality

  Air Quality AQ Index Pollutant
Not available.

Snow Depth

Station Depth Elevation

Earthquake Activity

City Distance Mag. Time & Date
Minimum magnitude displayed is 2.5.

Coastal Water Temperatures

Place Temperature

Nearby Weather Stations

Special Weather Statement
extreme cold warning
for northern Manitoba
ended by Environment Canada
at 10:31 a.M. CST Sunday 1 February 2015.
---------------------------------------------------------------------
Extreme cold warning ended for:
      Thompson - Nelson House - Split Lake
      Lynn Lake - Leaf Rapids - Pukatawagan
      Brochet
      Tadoule Lake
      Gillam
      Shamattawa.

---------------------------------------------------------------------
==Discussion==

Conditions are no longer expected to reach extreme cold warning 
criteria.

Wind chill values have moderated this morning.

Http://weather.Gc.CA/warnings/index(underscore)e.Html?Prov=mb

End/MSC